sensor_id;sensor_type;location;lat;lon;timestamp;P1;durP1;ratioP1;P2;durP2;ratioP2
50531;SDS011;36483;37.396;-122.212;2022-12-26T00:00:30;10.90;;;6.50;;
50531;SDS011;36483;37.396;-122.212;2022-12-26T00:02:56;9.65;;;6.20;;
50531;SDS011;36483;37.396;-122.212;2022-12-26T00:05:22;10.25;;;6.50;;
50531;SDS011;36483;37.396;-122.212;2022-12-26T00:07:48;10.38;;;6.70;;
50531;SDS011;36483;37.396;-122.212;2022-12-26T00:10:14;12.10;;;6.70;;
50531;SDS011;36483;37.396;-122.212;2022-12-26T00:12:40;9.23;;;6.47;;
50531;SDS011;36483;37.396;-122.212;2022-12-26T00:15:07;12.48;;;6.90;;
50531;SDS011;36483;37.396;-122.212;2022-12-26T00:17:33;11.00;;;6.20;;
50531;SDS011;36483;37.396;-122.212;2022-12-26T00:19:59;13.00;;;6.72;;
50531;SDS011;36483;37.396;-122.212;2022-12-26T00:22:25;9.40;;;6.20;;
50531;SDS011;36483;37.396;-122.212;2022-12-26T00:24:52;11.25;;;6.68;;
50531;SDS011;36483;37.396;-122.212;2022-12-26T00:27:18;12.80;;;6.50;;
50531;SDS011;36483;37.396;-122.212;2022-12-26T00:29:45;9.43;;;6.68;;
50531;SDS011;36483;37.396;-122.212;2022-12-26T00:32:12;9.30;;;6.82;;
50531;SDS011;36483;37.396;-122.212;2022-12-26T00:34:38;9.45;;;6.30;;
50531;SDS011;36483;37.396;-122.212;2022-12-26T00:37:05;9.23;;;6.40;;
50531;SDS011;36483;37.396;-122.212;2022-12-26T00:39:31;9.48;;;6.22;;
50531;SDS011;36483;37.396;-122.212;2022-12-26T00:41:57;10.10;;;6.50;;
50531;SDS011;36483;37.396;-122.212;2022-12-26T00:44:23;10.65;;;6.93;;
50531;SDS011;36483;37.396;-122.212;2022-12-26T00:46:49;9.63;;;6.75;;
50531;SDS011;36483;37.396;-122.212;2022-12-26T00:49:16;9.48;;;6.30;;
50531;SDS011;36483;37.396;-122.212;2022-12-26T00:51:42;11.70;;;6.60;;
50531;SDS011;36483;37.396;-122.212;2022-12-26T00:54:08;9.27;;;6.53;;
50531;SDS011;36483;37.396;-122.212;2022-12-26T00:56:34;10.68;;;6.68;;
50531;SDS011;36483;37.396;-122.212;2022-12-26T00:59:00;10.77;;;7.00;;
50531;SDS011;36483;37.396;-122.212;2022-12-26T01:01:26;8.70;;;6.18;;
50531;SDS011;36483;37.396;-122.212;2022-12-26T01:03:55;10.38;;;6.53;;
50531;SDS011;36483;37.396;-122.212;2022-12-26T01:06:22;9.82;;;6.80;;
50531;SDS011;36483;37.396;-122.212;2022-12-26T01:08:48;11.15;;;6.70;;
50531;SDS011;36483;37.396;-122.212;2022-12-26T01:11:15;10.43;;;7.07;;
50531;SDS011;36483;37.396;-122.212;2022-12-26T01:14:02;10.32;;;6.95;;
50531;SDS011;36483;37.396;-122.212;2022-12-26T01:16:28;14.38;;;7.85;;
50531;SDS011;36483;37.396;-122.212;2022-12-26T01:18:54;13.40;;;7.45;;
50531;SDS011;36483;37.396;-122.212;2022-12-26T01:21:20;12.07;;;7.90;;
50531;SDS011;36483;37.396;-122.212;2022-12-26T01:23:47;11.35;;;7.63;;
50531;SDS011;36483;37.396;-122.212;2022-12-26T01:26:13;12.85;;;8.77;;
50531;SDS011;36483;37.396;-122.212;2022-12-26T01:28:39;11.18;;;7.85;;
50531;SDS011;36483;37.396;-122.212;2022-12-26T01:31:05;10.68;;;8.07;;
50531;SDS011;36483;37.396;-122.212;2022-12-26T01:33:31;12.50;;;8.48;;
50531;SDS011;36483;37.396;-122.212;2022-12-26T01:35:58;13.57;;;8.10;;
50531;SDS011;36483;37.396;-122.212;2022-12-26T01:38:24;12.23;;;7.88;;
50531;SDS011;36483;37.396;-122.212;2022-12-26T01:40:50;13.48;;;7.90;;
50531;SDS011;36483;37.396;-122.212;2022-12-26T01:46:39;12.70;;;8.27;;
50531;SDS011;36483;37.396;-122.212;2022-12-26T01:49:20;12.43;;;8.23;;
50531;SDS011;36483;37.396;-122.212;2022-12-26T01:51:58;11.00;;;7.30;;
50531;SDS011;36483;37.396;-122.212;2022-12-26T01:54:26;10.85;;;7.47;;
50531;SDS011;36483;37.396;-122.212;2022-12-26T01:56:55;12.43;;;7.30;;
50531;SDS011;36483;37.396;-122.212;2022-12-26T01:59:23;11.63;;;6.90;;
50531;SDS011;36483;37.396;-122.212;2022-12-26T02:01:51;9.90;;;6.50;;
50531;SDS011;36483;37.396;-122.212;2022-12-26T02:04:24;9.95;;;6.65;;
50531;SDS011;36483;37.396;-122.212;2022-12-26T02:07:10;13.20;;;7.35;;
50531;SDS011;36483;37.396;-122.212;2022-12-26T02:09:37;10.73;;;6.72;;
50531;SDS011;36483;37.396;-122.212;2022-12-26T02:12:36;14.43;;;7.32;;
50531;SDS011;36483;37.396;-122.212;2022-12-26T02:14:58;11.05;;;7.53;;
50531;SDS011;36483;37.396;-122.212;2022-12-26T02:17:25;11.15;;;7.47;;
50531;SDS011;36483;37.396;-122.212;2022-12-26T02:19:55;13.50;;;7.88;;
50531;SDS011;36483;37.396;-122.212;2022-12-26T02:36:22;11.70;;;7.60;;
50531;SDS011;36483;37.396;-122.212;2022-12-26T02:44:45;11.68;;;7.93;;
50531;SDS011;36483;37.396;-122.212;2022-12-26T02:47:42;15.23;;;7.88;;
50531;SDS011;36483;37.396;-122.212;2022-12-26T02:50:14;14.13;;;8.07;;
50531;SDS011;36483;37.396;-122.212;2022-12-26T02:56:34;13.10;;;8.05;;
50531;SDS011;36483;37.396;-122.212;2022-12-26T03:02:18;11.40;;;7.70;;
50531;SDS011;36483;37.396;-122.212;2022-12-26T03:05:42;12.93;;;8.65;;
50531;SDS011;36483;37.396;-122.212;2022-12-26T03:08:30;12.57;;;7.70;;
50531;SDS011;36483;37.396;-122.212;2022-12-26T03:11:17;11.88;;;7.75;;
50531;SDS011;36483;37.396;-122.212;2022-12-26T03:14:15;12.10;;;8.10;;
50531;SDS011;36483;37.396;-122.212;2022-12-26T03:16:44;11.65;;;7.97;;
50531;SDS011;36483;37.396;-122.212;2022-12-26T03:19:31;13.13;;;7.47;;
50531;SDS011;36483;37.396;-122.212;2022-12-26T03:21:58;11.90;;;7.63;;
50531;SDS011;36483;37.396;-122.212;2022-12-26T03:24:25;11.68;;;7.82;;
50531;SDS011;36483;37.396;-122.212;2022-12-26T03:27:12;12.32;;;7.35;;
50531;SDS011;36483;37.396;-122.212;2022-12-26T03:29:38;11.40;;;7.47;;
50531;SDS011;36483;37.396;-122.212;2022-12-26T03:32:23;12.35;;;7.72;;
50531;SDS011;36483;37.396;-122.212;2022-12-26T03:34:49;11.70;;;7.78;;
50531;SDS011;36483;37.396;-122.212;2022-12-26T03:37:22;16.27;;;8.90;;
50531;SDS011;36483;37.396;-122.212;2022-12-26T03:40:03;14.35;;;8.13;;
50531;SDS011;36483;37.396;-122.212;2022-12-26T03:58:03;13.65;;;8.55;;
50531;SDS011;36483;37.396;-122.212;2022-12-26T04:00:50;12.98;;;8.52;;
50531;SDS011;36483;37.396;-122.212;2022-12-26T04:03:37;25.67;;;9.77;;
50531;SDS011;36483;37.396;-122.212;2022-12-26T04:06:29;15.23;;;8.85;;
50531;SDS011;36483;37.396;-122.212;2022-12-26T04:09:24;13.98;;;8.43;;
50531;SDS011;36483;37.396;-122.212;2022-12-26T04:12:13;12.05;;;8.30;;
50531;SDS011;36483;37.396;-122.212;2022-12-26T04:18:27;11.82;;;8.35;;
50531;SDS011;36483;37.396;-122.212;2022-12-26T04:21:30;13.48;;;9.18;;
50531;SDS011;36483;37.396;-122.212;2022-12-26T04:24:23;13.18;;;8.65;;
50531;SDS011;36483;37.396;-122.212;2022-12-26T04:27:11;11.88;;;8.05;;
50531;SDS011;36483;37.396;-122.212;2022-12-26T04:29:56;13.15;;;8.95;;
50531;SDS011;36483;37.396;-122.212;2022-12-26T04:38:33;13.13;;;8.02;;
50531;SDS011;36483;37.396;-122.212;2022-12-26T04:41:21;11.50;;;8.52;;
50531;SDS011;36483;37.396;-122.212;2022-12-26T04:44:06;12.18;;;7.93;;
50531;SDS011;36483;37.396;-122.212;2022-12-26T04:46:42;12.25;;;7.93;;
50531;SDS011;36483;37.396;-122.212;2022-12-26T04:49:11;14.05;;;9.02;;
50531;SDS011;36483;37.396;-122.212;2022-12-26T04:51:57;12.52;;;8.68;;
50531;SDS011;36483;37.396;-122.212;2022-12-26T04:54:24;11.98;;;8.63;;
50531;SDS011;36483;37.396;-122.212;2022-12-26T04:56:51;11.05;;;8.13;;
50531;SDS011;36483;37.396;-122.212;2022-12-26T04:59:17;14.38;;;9.38;;
50531;SDS011;36483;37.396;-122.212;2022-12-26T05:01:44;10.80;;;8.30;;
50531;SDS011;36483;37.396;-122.212;2022-12-26T05:04:28;13.30;;;9.30;;
50531;SDS011;36483;37.396;-122.212;2022-12-26T05:07:30;14.63;;;10.05;;
50531;SDS011;36483;37.396;-122.212;2022-12-26T05:10:17;17.80;;;10.88;;
50531;SDS011;36483;37.396;-122.212;2022-12-26T05:12:46;15.23;;;9.95;;
50531;SDS011;36483;37.396;-122.212;2022-12-26T05:15:12;16.50;;;10.25;;
50531;SDS011;36483;37.396;-122.212;2022-12-26T05:17:38;17.83;;;11.65;;
50531;SDS011;36483;37.396;-122.212;2022-12-26T05:20:23;16.60;;;11.05;;
50531;SDS011;36483;37.396;-122.212;2022-12-26T05:23:13;20.98;;;12.57;;
50531;SDS011;36483;37.396;-122.212;2022-12-26T05:26:08;20.98;;;12.35;;
50531;SDS011;36483;37.396;-122.212;2022-12-26T05:28:58;26.08;;;15.07;;
50531;SDS011;36483;37.396;-122.212;2022-12-26T05:31:24;24.95;;;15.20;;
50531;SDS011;36483;37.396;-122.212;2022-12-26T05:33:51;24.63;;;14.43;;
50531;SDS011;36483;37.396;-122.212;2022-12-26T05:39:03;27.63;;;16.05;;
50531;SDS011;36483;37.396;-122.212;2022-12-26T05:41:30;23.08;;;14.95;;
50531;SDS011;36483;37.396;-122.212;2022-12-26T05:43:56;28.35;;;15.02;;
50531;SDS011;36483;37.396;-122.212;2022-12-26T05:46:22;24.13;;;14.43;;
50531;SDS011;36483;37.396;-122.212;2022-12-26T05:48:48;22.27;;;15.07;;
50531;SDS011;36483;37.396;-122.212;2022-12-26T05:51:14;28.48;;;16.52;;
50531;SDS011;36483;37.396;-122.212;2022-12-26T05:53:41;29.25;;;17.30;;
50531;SDS011;36483;37.396;-122.212;2022-12-26T05:56:10;24.35;;;15.10;;
50531;SDS011;36483;37.396;-122.212;2022-12-26T05:58:38;25.45;;;16.08;;
50531;SDS011;36483;37.396;-122.212;2022-12-26T06:01:08;30.48;;;17.58;;
50531;SDS011;36483;37.396;-122.212;2022-12-26T06:03:37;26.08;;;16.05;;
50531;SDS011;36483;37.396;-122.212;2022-12-26T06:06:04;27.58;;;15.90;;
50531;SDS011;36483;37.396;-122.212;2022-12-26T06:08:31;27.67;;;16.20;;
50531;SDS011;36483;37.396;-122.212;2022-12-26T06:10:57;25.88;;;15.68;;
50531;SDS011;36483;37.396;-122.212;2022-12-26T06:13:23;29.63;;;15.52;;
50531;SDS011;36483;37.396;-122.212;2022-12-26T06:15:49;29.00;;;16.92;;
50531;SDS011;36483;37.396;-122.212;2022-12-26T06:18:15;23.90;;;15.57;;
50531;SDS011;36483;37.396;-122.212;2022-12-26T06:20:42;24.98;;;15.60;;
50531;SDS011;36483;37.396;-122.212;2022-12-26T06:23:08;28.67;;;16.45;;
50531;SDS011;36483;37.396;-122.212;2022-12-26T06:25:34;26.45;;;17.13;;
50531;SDS011;36483;37.396;-122.212;2022-12-26T06:28:00;26.15;;;16.35;;
50531;SDS011;36483;37.396;-122.212;2022-12-26T06:30:26;27.02;;;16.35;;
50531;SDS011;36483;37.396;-122.212;2022-12-26T06:32:52;24.50;;;15.60;;
50531;SDS011;36483;37.396;-122.212;2022-12-26T06:35:18;25.50;;;15.23;;
50531;SDS011;36483;37.396;-122.212;2022-12-26T06:37:44;26.60;;;16.40;;
50531;SDS011;36483;37.396;-122.212;2022-12-26T06:40:11;27.00;;;15.25;;
50531;SDS011;36483;37.396;-122.212;2022-12-26T06:42:37;27.35;;;15.88;;
50531;SDS011;36483;37.396;-122.212;2022-12-26T06:45:03;25.38;;;15.32;;
50531;SDS011;36483;37.396;-122.212;2022-12-26T06:47:29;23.90;;;15.60;;
50531;SDS011;36483;37.396;-122.212;2022-12-26T06:49:55;24.15;;;15.15;;
50531;SDS011;36483;37.396;-122.212;2022-12-26T06:52:22;23.50;;;15.30;;
50531;SDS011;36483;37.396;-122.212;2022-12-26T06:54:48;25.00;;;14.95;;
50531;SDS011;36483;37.396;-122.212;2022-12-26T06:57:14;25.52;;;14.68;;
50531;SDS011;36483;37.396;-122.212;2022-12-26T06:59:40;25.35;;;15.18;;
50531;SDS011;36483;37.396;-122.212;2022-12-26T07:02:08;25.20;;;15.02;;
50531;SDS011;36483;37.396;-122.212;2022-12-26T07:04:35;21.35;;;14.18;;
50531;SDS011;36483;37.396;-122.212;2022-12-26T07:07:01;23.95;;;14.38;;
50531;SDS011;36483;37.396;-122.212;2022-12-26T07:09:27;23.70;;;14.52;;
50531;SDS011;36483;37.396;-122.212;2022-12-26T07:11:54;24.20;;;14.52;;
50531;SDS011;36483;37.396;-122.212;2022-12-26T07:14:20;23.20;;;14.57;;
50531;SDS011;36483;37.396;-122.212;2022-12-26T07:16:46;25.90;;;15.77;;
50531;SDS011;36483;37.396;-122.212;2022-12-26T07:19:13;24.60;;;16.10;;
50531;SDS011;36483;37.396;-122.212;2022-12-26T07:21:40;25.60;;;15.18;;
50531;SDS011;36483;37.396;-122.212;2022-12-26T07:24:17;24.77;;;14.10;;
50531;SDS011;36483;37.396;-122.212;2022-12-26T07:26:44;23.90;;;14.38;;
50531;SDS011;36483;37.396;-122.212;2022-12-26T07:29:11;24.17;;;14.65;;
50531;SDS011;36483;37.396;-122.212;2022-12-26T07:31:38;22.20;;;14.23;;
50531;SDS011;36483;37.396;-122.212;2022-12-26T07:34:04;27.40;;;14.88;;
50531;SDS011;36483;37.396;-122.212;2022-12-26T07:36:30;24.98;;;15.35;;
50531;SDS011;36483;37.396;-122.212;2022-12-26T07:38:57;23.33;;;15.38;;
50531;SDS011;36483;37.396;-122.212;2022-12-26T07:41:23;24.60;;;15.52;;
50531;SDS011;36483;37.396;-122.212;2022-12-26T07:44:10;24.02;;;15.38;;
50531;SDS011;36483;37.396;-122.212;2022-12-26T07:46:36;22.35;;;14.05;;
50531;SDS011;36483;37.396;-122.212;2022-12-26T07:49:03;29.02;;;15.20;;
50531;SDS011;36483;37.396;-122.212;2022-12-26T07:51:29;24.90;;;14.25;;
50531;SDS011;36483;37.396;-122.212;2022-12-26T07:53:55;23.65;;;14.75;;
50531;SDS011;36483;37.396;-122.212;2022-12-26T07:56:21;22.75;;;14.50;;
50531;SDS011;36483;37.396;-122.212;2022-12-26T07:58:48;22.90;;;14.55;;
50531;SDS011;36483;37.396;-122.212;2022-12-26T08:01:15;27.88;;;14.95;;
50531;SDS011;36483;37.396;-122.212;2022-12-26T08:03:41;28.00;;;15.73;;
50531;SDS011;36483;37.396;-122.212;2022-12-26T08:06:10;22.63;;;13.70;;
50531;SDS011;36483;37.396;-122.212;2022-12-26T08:08:37;29.08;;;17.20;;
50531;SDS011;36483;37.396;-122.212;2022-12-26T08:11:04;26.80;;;16.02;;
50531;SDS011;36483;37.396;-122.212;2022-12-26T08:13:31;24.15;;;14.35;;
50531;SDS011;36483;37.396;-122.212;2022-12-26T08:15:58;21.63;;;13.77;;
50531;SDS011;36483;37.396;-122.212;2022-12-26T08:18:28;24.95;;;15.02;;
50531;SDS011;36483;37.396;-122.212;2022-12-26T08:20:54;25.73;;;15.07;;
50531;SDS011;36483;37.396;-122.212;2022-12-26T08:23:22;25.80;;;14.48;;
50531;SDS011;36483;37.396;-122.212;2022-12-26T08:25:49;25.92;;;14.05;;
50531;SDS011;36483;37.396;-122.212;2022-12-26T08:28:15;24.75;;;14.43;;
50531;SDS011;36483;37.396;-122.212;2022-12-26T08:30:41;22.58;;;14.48;;
50531;SDS011;36483;37.396;-122.212;2022-12-26T08:33:08;21.83;;;14.05;;
50531;SDS011;36483;37.396;-122.212;2022-12-26T08:35:36;21.98;;;13.73;;
50531;SDS011;36483;37.396;-122.212;2022-12-26T08:38:03;27.42;;;15.25;;
50531;SDS011;36483;37.396;-122.212;2022-12-26T08:40:29;23.20;;;14.15;;
50531;SDS011;36483;37.396;-122.212;2022-12-26T08:42:56;21.65;;;13.55;;
50531;SDS011;36483;37.396;-122.212;2022-12-26T08:45:22;21.77;;;13.80;;
50531;SDS011;36483;37.396;-122.212;2022-12-26T08:47:48;24.35;;;14.43;;
50531;SDS011;36483;37.396;-122.212;2022-12-26T08:50:15;22.42;;;13.65;;
50531;SDS011;36483;37.396;-122.212;2022-12-26T08:52:41;27.92;;;14.90;;
50531;SDS011;36483;37.396;-122.212;2022-12-26T08:55:08;25.85;;;14.55;;
50531;SDS011;36483;37.396;-122.212;2022-12-26T08:57:35;24.45;;;14.93;;
50531;SDS011;36483;37.396;-122.212;2022-12-26T09:00:01;24.33;;;13.65;;
50531;SDS011;36483;37.396;-122.212;2022-12-26T09:02:28;24.38;;;13.57;;
50531;SDS011;36483;37.396;-122.212;2022-12-26T09:04:54;22.92;;;14.02;;
50531;SDS011;36483;37.396;-122.212;2022-12-26T09:07:21;22.73;;;13.95;;
50531;SDS011;36483;37.396;-122.212;2022-12-26T09:09:47;23.38;;;14.30;;
50531;SDS011;36483;37.396;-122.212;2022-12-26T09:12:13;23.08;;;14.13;;
50531;SDS011;36483;37.396;-122.212;2022-12-26T09:14:39;20.20;;;12.55;;
50531;SDS011;36483;37.396;-122.212;2022-12-26T09:17:05;19.45;;;12.85;;
50531;SDS011;36483;37.396;-122.212;2022-12-26T09:19:31;24.17;;;14.68;;
50531;SDS011;36483;37.396;-122.212;2022-12-26T09:21:58;20.60;;;13.82;;
50531;SDS011;36483;37.396;-122.212;2022-12-26T09:24:42;23.27;;;12.98;;
50531;SDS011;36483;37.396;-122.212;2022-12-26T09:27:08;20.08;;;13.15;;
50531;SDS011;36483;37.396;-122.212;2022-12-26T09:29:35;18.90;;;12.38;;
50531;SDS011;36483;37.396;-122.212;2022-12-26T09:32:02;22.00;;;12.90;;
50531;SDS011;36483;37.396;-122.212;2022-12-26T09:34:29;20.88;;;12.45;;
50531;SDS011;36483;37.396;-122.212;2022-12-26T09:36:55;21.92;;;12.73;;
50531;SDS011;36483;37.396;-122.212;2022-12-26T09:39:21;22.58;;;12.57;;
50531;SDS011;36483;37.396;-122.212;2022-12-26T09:42:34;22.00;;;12.65;;
50531;SDS011;36483;37.396;-122.212;2022-12-26T09:44:42;27.90;;;15.13;;
50531;SDS011;36483;37.396;-122.212;2022-12-26T09:47:36;24.40;;;14.85;;
50531;SDS011;36483;37.396;-122.212;2022-12-26T09:53:44;25.48;;;13.90;;
50531;SDS011;36483;37.396;-122.212;2022-12-26T09:56:10;20.85;;;13.10;;
50531;SDS011;36483;37.396;-122.212;2022-12-26T10:03:48;22.20;;;14.75;;
50531;SDS011;36483;37.396;-122.212;2022-12-26T10:11:22;21.17;;;13.65;;
50531;SDS011;36483;37.396;-122.212;2022-12-26T10:17:36;22.13;;;14.02;;
50531;SDS011;36483;37.396;-122.212;2022-12-26T10:19:49;22.40;;;14.88;;
50531;SDS011;36483;37.396;-122.212;2022-12-26T10:24:52;27.70;;;16.23;;
50531;SDS011;36483;37.396;-122.212;2022-12-26T10:27:20;29.80;;;16.75;;
50531;SDS011;36483;37.396;-122.212;2022-12-26T10:29:49;25.10;;;14.55;;
50531;SDS011;36483;37.396;-122.212;2022-12-26T10:32:30;24.52;;;16.20;;
50531;SDS011;36483;37.396;-122.212;2022-12-26T10:37:32;26.80;;;16.42;;
50531;SDS011;36483;37.396;-122.212;2022-12-26T10:40:20;26.25;;;17.27;;
50531;SDS011;36483;37.396;-122.212;2022-12-26T10:42:54;25.98;;;16.00;;
50531;SDS011;36483;37.396;-122.212;2022-12-26T10:47:48;26.48;;;16.45;;
50531;SDS011;36483;37.396;-122.212;2022-12-26T10:50:20;28.83;;;17.23;;
50531;SDS011;36483;37.396;-122.212;2022-12-26T10:53:05;30.13;;;17.85;;
50531;SDS011;36483;37.396;-122.212;2022-12-26T10:55:35;32.03;;;16.75;;
50531;SDS011;36483;37.396;-122.212;2022-12-26T10:58:15;31.75;;;17.88;;
50531;SDS011;36483;37.396;-122.212;2022-12-26T11:00:43;27.52;;;17.67;;
50531;SDS011;36483;37.396;-122.212;2022-12-26T11:03:10;28.75;;;17.50;;
50531;SDS011;36483;37.396;-122.212;2022-12-26T11:05:39;31.42;;;17.63;;
50531;SDS011;36483;37.396;-122.212;2022-12-26T11:11:05;29.92;;;16.88;;
50531;SDS011;36483;37.396;-122.212;2022-12-26T11:13:37;33.60;;;17.60;;
50531;SDS011;36483;37.396;-122.212;2022-12-26T11:16:05;31.30;;;16.83;;
50531;SDS011;36483;37.396;-122.212;2022-12-26T11:18:53;28.63;;;17.20;;
50531;SDS011;36483;37.396;-122.212;2022-12-26T11:21:20;30.58;;;17.73;;
50531;SDS011;36483;37.396;-122.212;2022-12-26T11:24:09;32.20;;;18.00;;
50531;SDS011;36483;37.396;-122.212;2022-12-26T11:26:41;33.95;;;17.20;;
50531;SDS011;36483;37.396;-122.212;2022-12-26T11:29:12;30.10;;;17.67;;
50531;SDS011;36483;37.396;-122.212;2022-12-26T11:31:49;30.63;;;17.73;;
50531;SDS011;36483;37.396;-122.212;2022-12-26T11:34:39;31.20;;;16.58;;
50531;SDS011;36483;37.396;-122.212;2022-12-26T11:37:23;30.10;;;17.13;;
50531;SDS011;36483;37.396;-122.212;2022-12-26T11:39:54;31.77;;;17.83;;
50531;SDS011;36483;37.396;-122.212;2022-12-26T11:42:21;27.73;;;16.13;;
50531;SDS011;36483;37.396;-122.212;2022-12-26T11:44:49;36.85;;;19.67;;
50531;SDS011;36483;37.396;-122.212;2022-12-26T11:47:18;29.73;;;17.13;;
50531;SDS011;36483;37.396;-122.212;2022-12-26T12:00:23;31.77;;;17.83;;
50531;SDS011;36483;37.396;-122.212;2022-12-26T12:02:50;30.27;;;17.52;;
50531;SDS011;36483;37.396;-122.212;2022-12-26T12:18:46;32.40;;;19.40;;
50531;SDS011;36483;37.396;-122.212;2022-12-26T12:21:38;33.53;;;19.20;;
50531;SDS011;36483;37.396;-122.212;2022-12-26T12:30:02;31.73;;;18.63;;
50531;SDS011;36483;37.396;-122.212;2022-12-26T12:38:37;31.65;;;18.33;;
50531;SDS011;36483;37.396;-122.212;2022-12-26T12:44:11;31.30;;;19.33;;
50531;SDS011;36483;37.396;-122.212;2022-12-26T12:49:42;35.10;;;19.40;;
50531;SDS011;36483;37.396;-122.212;2022-12-26T12:52:19;33.22;;;19.02;;
50531;SDS011;36483;37.396;-122.212;2022-12-26T13:00:57;32.22;;;18.00;;
50531;SDS011;36483;37.396;-122.212;2022-12-26T13:03:29;31.83;;;18.23;;
50531;SDS011;36483;37.396;-122.212;2022-12-26T13:11:27;31.42;;;18.60;;
50531;SDS011;36483;37.396;-122.212;2022-12-26T13:16:52;33.25;;;19.45;;
50531;SDS011;36483;37.396;-122.212;2022-12-26T13:22:26;33.15;;;18.55;;
50531;SDS011;36483;37.396;-122.212;2022-12-26T13:25:18;30.02;;;16.75;;
50531;SDS011;36483;37.396;-122.212;2022-12-26T13:27:45;32.13;;;18.15;;
50531;SDS011;36483;37.396;-122.212;2022-12-26T13:30:14;32.85;;;18.30;;
50531;SDS011;36483;37.396;-122.212;2022-12-26T13:32:41;31.38;;;19.05;;
50531;SDS011;36483;37.396;-122.212;2022-12-26T13:35:45;27.58;;;15.95;;
50531;SDS011;36483;37.396;-122.212;2022-12-26T13:38:12;31.08;;;17.95;;
50531;SDS011;36483;37.396;-122.212;2022-12-26T13:40:43;31.73;;;17.85;;
50531;SDS011;36483;37.396;-122.212;2022-12-26T13:43:59;30.23;;;16.92;;
50531;SDS011;36483;37.396;-122.212;2022-12-26T13:49:28;29.40;;;17.13;;
50531;SDS011;36483;37.396;-122.212;2022-12-26T13:51:56;29.15;;;16.35;;
50531;SDS011;36483;37.396;-122.212;2022-12-26T13:54:31;28.23;;;16.65;;
50531;SDS011;36483;37.396;-122.212;2022-12-26T13:57:08;27.83;;;16.77;;
50531;SDS011;36483;37.396;-122.212;2022-12-26T14:08:10;30.88;;;17.73;;
50531;SDS011;36483;37.396;-122.212;2022-12-26T14:10:57;32.40;;;17.83;;
50531;SDS011;36483;37.396;-122.212;2022-12-26T14:16:18;31.25;;;18.00;;
50531;SDS011;36483;37.396;-122.212;2022-12-26T14:21:30;27.05;;;15.88;;
50531;SDS011;36483;37.396;-122.212;2022-12-26T14:37:17;28.00;;;16.48;;
50531;SDS011;36483;37.396;-122.212;2022-12-26T14:45:49;28.85;;;17.00;;
50531;SDS011;36483;37.396;-122.212;2022-12-26T15:31:09;29.67;;;17.83;;
50531;SDS011;36483;37.396;-122.212;2022-12-26T15:33:44;32.67;;;18.88;;
50531;SDS011;36483;37.396;-122.212;2022-12-26T15:39:00;33.83;;;18.75;;
50531;SDS011;36483;37.396;-122.212;2022-12-26T15:41:48;32.65;;;18.85;;
50531;SDS011;36483;37.396;-122.212;2022-12-26T15:49:58;33.65;;;18.45;;
50531;SDS011;36483;37.396;-122.212;2022-12-26T15:52:42;28.30;;;17.05;;
50531;SDS011;36483;37.396;-122.212;2022-12-26T15:55:32;37.22;;;20.40;;
50531;SDS011;36483;37.396;-122.212;2022-12-26T16:00:52;38.28;;;20.50;;
50531;SDS011;36483;37.396;-122.212;2022-12-26T16:11:51;31.80;;;18.55;;
50531;SDS011;36483;37.396;-122.212;2022-12-26T16:14:37;33.45;;;18.70;;
50531;SDS011;36483;37.396;-122.212;2022-12-26T16:19:39;32.00;;;18.70;;
50531;SDS011;36483;37.396;-122.212;2022-12-26T16:22:52;29.92;;;17.92;;
50531;SDS011;36483;37.396;-122.212;2022-12-26T16:25:14;37.67;;;19.70;;
50531;SDS011;36483;37.396;-122.212;2022-12-26T16:27:41;33.97;;;19.90;;
50531;SDS011;36483;37.396;-122.212;2022-12-26T16:30:13;32.42;;;18.77;;
50531;SDS011;36483;37.396;-122.212;2022-12-26T16:32:45;33.28;;;19.25;;
50531;SDS011;36483;37.396;-122.212;2022-12-26T16:40:31;38.85;;;20.42;;
50531;SDS011;36483;37.396;-122.212;2022-12-26T16:43:00;30.58;;;18.58;;
50531;SDS011;36483;37.396;-122.212;2022-12-26T16:45:28;36.17;;;19.52;;
50531;SDS011;36483;37.396;-122.212;2022-12-26T16:47:57;39.20;;;19.92;;
50531;SDS011;36483;37.396;-122.212;2022-12-26T16:50:28;40.42;;;22.42;;
50531;SDS011;36483;37.396;-122.212;2022-12-26T16:59:08;43.20;;;23.10;;
50531;SDS011;36483;37.396;-122.212;2022-12-26T17:01:35;44.08;;;22.88;;
50531;SDS011;36483;37.396;-122.212;2022-12-26T17:04:03;42.30;;;22.77;;
50531;SDS011;36483;37.396;-122.212;2022-12-26T17:06:31;38.95;;;21.25;;
50531;SDS011;36483;37.396;-122.212;2022-12-26T17:09:07;46.03;;;23.23;;
50531;SDS011;36483;37.396;-122.212;2022-12-26T17:11:37;44.40;;;23.70;;
50531;SDS011;36483;37.396;-122.212;2022-12-26T17:14:05;41.13;;;22.40;;
50531;SDS011;36483;37.396;-122.212;2022-12-26T17:16:33;43.53;;;22.95;;
50531;SDS011;36483;37.396;-122.212;2022-12-26T17:24:44;39.75;;;21.27;;
50531;SDS011;36483;37.396;-122.212;2022-12-26T17:29:51;41.58;;;24.15;;
50531;SDS011;36483;37.396;-122.212;2022-12-26T17:32:22;47.45;;;24.83;;
50531;SDS011;36483;37.396;-122.212;2022-12-26T17:35:14;48.15;;;25.55;;
50531;SDS011;36483;37.396;-122.212;2022-12-26T17:37:49;48.78;;;25.60;;
50531;SDS011;36483;37.396;-122.212;2022-12-26T17:40:20;45.17;;;24.30;;
50531;SDS011;36483;37.396;-122.212;2022-12-26T17:42:51;55.42;;;27.80;;
50531;SDS011;36483;37.396;-122.212;2022-12-26T17:45:23;45.78;;;25.13;;
50531;SDS011;36483;37.396;-122.212;2022-12-26T17:47:51;50.03;;;25.30;;
50531;SDS011;36483;37.396;-122.212;2022-12-26T17:50:19;46.55;;;25.50;;
50531;SDS011;36483;37.396;-122.212;2022-12-26T17:52:46;57.47;;;29.05;;
50531;SDS011;36483;37.396;-122.212;2022-12-26T17:55:17;50.42;;;27.08;;
50531;SDS011;36483;37.396;-122.212;2022-12-26T17:57:49;58.15;;;29.63;;
50531;SDS011;36483;37.396;-122.212;2022-12-26T18:00:20;54.63;;;28.30;;
50531;SDS011;36483;37.396;-122.212;2022-12-26T18:02:47;55.65;;;28.23;;
50531;SDS011;36483;37.396;-122.212;2022-12-26T18:05:14;50.05;;;27.70;;
50531;SDS011;36483;37.396;-122.212;2022-12-26T18:07:41;48.53;;;25.88;;
50531;SDS011;36483;37.396;-122.212;2022-12-26T18:10:19;49.70;;;27.20;;
50531;SDS011;36483;37.396;-122.212;2022-12-26T18:12:49;53.45;;;28.85;;
50531;SDS011;36483;37.396;-122.212;2022-12-26T18:15:16;52.72;;;28.27;;
50531;SDS011;36483;37.396;-122.212;2022-12-26T18:17:42;48.78;;;27.10;;
50531;SDS011;36483;37.396;-122.212;2022-12-26T18:20:13;53.17;;;28.40;;
50531;SDS011;36483;37.396;-122.212;2022-12-26T18:23:00;51.65;;;28.17;;
50531;SDS011;36483;37.396;-122.212;2022-12-26T18:25:26;57.33;;;30.70;;
50531;SDS011;36483;37.396;-122.212;2022-12-26T18:27:52;51.67;;;29.70;;
50531;SDS011;36483;37.396;-122.212;2022-12-26T18:30:20;51.08;;;28.40;;
50531;SDS011;36483;37.396;-122.212;2022-12-26T18:32:49;52.30;;;27.75;;
50531;SDS011;36483;37.396;-122.212;2022-12-26T18:35:17;49.60;;;29.63;;
50531;SDS011;36483;37.396;-122.212;2022-12-26T18:37:47;57.05;;;31.48;;
50531;SDS011;36483;37.396;-122.212;2022-12-26T18:40:28;60.27;;;32.60;;